createdAt,value
2022-10-19T00:00:50.101Z,8.8
2022-10-19T00:06:50.138Z,8.8
2022-10-19T00:09:50.109Z,8.7
2022-10-19T00:12:50.112Z,8.8
2022-10-19T00:15:50.120Z,8.8
2022-10-19T00:18:50.127Z,8.8
2022-10-19T00:24:50.159Z,8.8
2022-10-19T00:27:50.133Z,8.8
2022-10-19T00:30:50.165Z,8.8
2022-10-19T00:33:50.134Z,8.8
2022-10-19T00:36:50.141Z,8.8
2022-10-19T00:42:50.171Z,8.8
2022-10-19T00:45:50.162Z,8.8
2022-10-19T00:48:50.172Z,8.8
2022-10-19T00:51:50.156Z,8.7
2022-10-19T00:54:50.159Z,8.7
2022-10-19T01:00:50.249Z,8.7
2022-10-19T01:03:50.174Z,8.7
2022-10-19T01:09:50.177Z,8.7
2022-10-19T01:12:50.180Z,8.7
2022-10-19T01:15:50.236Z,8.7
2022-10-19T01:18:50.236Z,8.7
2022-10-19T01:21:50.194Z,8.7
2022-10-19T01:24:50.231Z,8.6
2022-10-19T01:27:50.196Z,8.6
2022-10-19T01:30:50.202Z,8.7
2022-10-19T01:33:50.266Z,8.6
2022-10-19T01:36:50.230Z,8.6
2022-10-19T01:39:50.205Z,8.6
2022-10-19T01:42:50.241Z,8.6
2022-10-19T01:45:50.374Z,8.6
2022-10-19T01:48:50.208Z,8.6
2022-10-19T01:51:50.222Z,8.6
2022-10-19T01:54:50.239Z,8.7
2022-10-19T01:57:50.211Z,8.7
2022-10-19T02:00:50.332Z,8.7
2022-10-19T02:03:50.218Z,8.7
2022-10-19T02:06:50.224Z,8.7
2022-10-19T02:09:50.223Z,8.7
2022-10-19T02:12:50.350Z,8.7
2022-10-19T02:15:50.241Z,8.7
2022-10-19T02:18:50.246Z,8.7
2022-10-19T02:21:50.250Z,8.8
2022-10-19T02:24:50.255Z,8.8
2022-10-19T02:27:50.261Z,8.8
2022-10-19T02:30:50.291Z,8.9
2022-10-19T02:33:50.270Z,8.9
2022-10-19T02:36:50.276Z,8.9
2022-10-19T02:39:50.284Z,8.9
2022-10-19T02:42:50.293Z,8.9
2022-10-19T02:45:50.291Z,8.9
2022-10-19T02:48:50.327Z,8.9
2022-10-19T02:51:50.307Z,8.9
2022-10-19T02:54:50.308Z,8.9
2022-10-19T02:57:50.312Z,8.9
2022-10-19T03:00:50.356Z,8.9
2022-10-19T03:03:50.322Z,8.9
2022-10-19T03:06:50.353Z,8.9
2022-10-19T03:09:50.330Z,8.9
2022-10-19T03:12:50.339Z,8.9
2022-10-19T03:15:50.342Z,9
2022-10-19T03:18:50.354Z,9
2022-10-19T03:21:50.355Z,9
2022-10-19T03:24:50.386Z,9
2022-10-19T03:27:50.365Z,9
2022-10-19T03:30:50.371Z,9
2022-10-19T03:33:50.373Z,9
2022-10-19T03:36:50.381Z,9
2022-10-19T03:39:50.382Z,9
2022-10-19T03:42:50.409Z,9
2022-10-19T03:45:50.395Z,8.9
2022-10-19T03:48:50.402Z,9
2022-10-19T03:51:50.408Z,8.9
2022-10-19T03:54:50.412Z,8.9
2022-10-19T03:57:50.416Z,8.9
2022-10-19T04:00:50.490Z,8.9
2022-10-19T04:03:50.431Z,8.9
2022-10-19T04:06:50.440Z,8.9
2022-10-19T04:09:50.447Z,8.9
2022-10-19T04:12:53.690Z,8.9
2022-10-19T04:15:50.455Z,8.8
2022-10-19T04:18:50.479Z,8.8
2022-10-19T04:21:50.467Z,8.8
2022-10-19T04:24:50.470Z,8.9
2022-10-19T04:27:50.478Z,8.9
2022-10-19T04:30:50.485Z,8.9
2022-10-19T04:33:50.513Z,8.9
2022-10-19T04:36:50.522Z,8.9
2022-10-19T04:39:50.506Z,8.9
2022-10-19T04:42:50.510Z,8.9
2022-10-19T04:45:50.512Z,8.9
2022-10-19T04:48:50.523Z,8.9
2022-10-19T04:51:50.535Z,8.9
2022-10-19T04:54:50.639Z,8.9
2022-10-19T04:57:50.549Z,8.9
2022-10-19T05:00:50.585Z,8.9
2022-10-19T05:03:50.607Z,8.9
2022-10-19T05:06:50.569Z,8.9
2022-10-19T05:09:50.576Z,8.9
2022-10-19T05:12:50.605Z,8.8
2022-10-19T05:15:50.587Z,8.8
2022-10-19T05:18:50.601Z,8.7
2022-10-19T05:21:50.605Z,8.7
2022-10-19T05:24:52.314Z,8.6
2022-10-19T05:27:50.617Z,8.7
2022-10-19T05:30:50.648Z,8.7
2022-10-19T05:33:50.635Z,8.7
2022-10-19T05:36:50.639Z,8.7
2022-10-19T05:39:50.649Z,8.8
2022-10-19T05:42:50.658Z,8.8
2022-10-19T05:45:50.664Z,8.8
2022-10-19T05:48:50.697Z,8.8
2022-10-19T05:51:50.686Z,8.8
2022-10-19T05:54:50.699Z,8.8
2022-10-19T05:57:50.701Z,8.8
2022-10-19T06:00:50.709Z,8.8
2022-10-19T06:03:50.717Z,8.8
2022-10-19T06:06:50.751Z,8.8
2022-10-19T06:09:50.739Z,8.8
2022-10-19T06:12:50.742Z,8.7
2022-10-19T06:15:50.752Z,8.7
2022-10-19T06:18:50.759Z,8.6
2022-10-19T06:21:50.772Z,8.5
2022-10-19T06:24:50.804Z,8.5
2022-10-19T06:27:50.843Z,8.5
2022-10-19T06:30:50.831Z,8.4
2022-10-19T06:33:50.872Z,8.3
2022-10-19T06:36:50.819Z,8.1
2022-10-19T06:39:50.861Z,8.1
2022-10-19T06:42:50.860Z,8.1
2022-10-19T06:45:50.850Z,7.9
2022-10-19T06:48:50.853Z,7.9
2022-10-19T06:51:50.879Z,8
2022-10-19T06:54:50.877Z,8
2022-10-19T06:57:50.890Z,8
2022-10-19T07:00:50.985Z,8
2022-10-19T07:03:50.910Z,8
2022-10-19T07:06:50.921Z,8
2022-10-19T07:09:50.927Z,8
2022-10-19T07:12:50.947Z,8
2022-10-19T07:15:50.960Z,8.1
2022-10-19T07:18:50.989Z,8.1
2022-10-19T07:21:50.972Z,8.2
2022-10-19T07:24:50.994Z,8.2
2022-10-19T07:27:51.001Z,8.2
2022-10-19T07:30:51.015Z,8.2
2022-10-19T07:33:51.029Z,8.2
2022-10-19T07:36:51.058Z,8.3
2022-10-19T07:39:51.048Z,8.2
2022-10-19T07:42:51.061Z,8.2
2022-10-19T07:45:51.068Z,8.2
2022-10-19T07:48:51.082Z,8.2
2022-10-19T07:51:51.092Z,8.2
2022-10-19T07:54:51.131Z,8.2
2022-10-19T07:57:51.123Z,8.3
2022-10-19T08:00:51.180Z,8.1
2022-10-19T08:06:51.159Z,8.2
2022-10-19T08:09:53.802Z,8.3
2022-10-19T08:12:51.216Z,8.2
2022-10-19T08:15:51.195Z,8.2
2022-10-19T08:18:51.209Z,8.2
2022-10-19T08:21:51.228Z,8.1
2022-10-19T08:24:51.233Z,8.1
2022-10-19T08:27:51.252Z,8.1
2022-10-19T08:30:51.284Z,8
2022-10-19T08:33:51.267Z,7.6
2022-10-19T08:36:51.273Z,7.1
2022-10-19T08:39:51.281Z,7.1
2022-10-19T08:42:51.297Z,7.3
2022-10-19T08:45:51.316Z,7.3
2022-10-19T08:48:51.344Z,7.5
2022-10-19T08:51:51.318Z,7.4
2022-10-19T08:54:51.340Z,7.5
2022-10-19T08:57:51.354Z,7.5
2022-10-19T09:00:51.350Z,7.5
2022-10-19T09:03:55.254Z,7.5
2022-10-19T09:06:51.393Z,7.3
2022-10-19T09:09:51.386Z,7.4
2022-10-19T09:12:52.843Z,7.5
2022-10-19T09:15:51.407Z,7.5
2022-10-19T09:18:51.535Z,7.5
2022-10-19T09:21:51.421Z,7.5
2022-10-19T09:24:51.567Z,7.9
2022-10-19T09:27:51.545Z,7.8
2022-10-19T09:30:51.460Z,7.9
2022-10-19T09:33:51.467Z,8.4
2022-10-19T09:36:51.482Z,8.3
2022-10-19T09:39:53.901Z,8.4
2022-10-19T09:42:51.542Z,8.3
2022-10-19T09:45:51.508Z,8.1
2022-10-19T09:48:51.515Z,8
2022-10-19T09:51:51.540Z,8.3
2022-10-19T09:54:51.528Z,8.5
2022-10-19T09:57:51.557Z,8.6
2022-10-19T10:00:51.580Z,8.7
2022-10-19T10:03:52.523Z,8.6
2022-10-19T10:06:51.624Z,8.7
2022-10-19T10:09:51.729Z,8.6
2022-10-19T10:12:51.648Z,8.6
2022-10-19T10:15:51.635Z,8.6
2022-10-19T10:18:51.665Z,8.8
2022-10-19T10:21:51.640Z,8.4
2022-10-19T10:24:51.640Z,8.2
2022-10-19T10:27:51.651Z,8.3
2022-10-19T10:30:51.641Z,8.1
2022-10-19T10:36:51.676Z,8
2022-10-19T10:39:51.646Z,7.7
2022-10-19T10:42:51.661Z,7.6
2022-10-19T10:45:51.649Z,7.5
2022-10-19T10:48:53.306Z,7.6
2022-10-19T10:51:52.855Z,7.4
2022-10-19T10:54:51.720Z,7.6
2022-10-19T10:57:51.663Z,7.4
2022-10-19T11:00:51.659Z,7.4
2022-10-19T11:03:51.656Z,7.3
2022-10-19T11:06:51.676Z,7.2
2022-10-19T11:09:51.661Z,7.4
2022-10-19T11:12:51.730Z,7.5
2022-10-19T11:15:51.681Z,7.3
2022-10-19T11:18:51.672Z,7.5
2022-10-19T11:21:51.676Z,7.3
2022-10-19T11:24:51.678Z,7.5
2022-10-19T11:27:51.687Z,7.5
2022-10-19T11:30:51.702Z,7.5
2022-10-19T11:33:51.676Z,7.5
2022-10-19T11:36:51.672Z,7.4
2022-10-19T11:39:51.684Z,7.5
2022-10-19T11:42:51.698Z,7.6
2022-10-19T11:45:51.690Z,7.5
2022-10-19T11:48:54.090Z,7.4
2022-10-19T11:51:51.692Z,7.5
2022-10-19T11:54:51.700Z,7.7
2022-10-19T11:57:51.714Z,7.5
2022-10-19T12:00:51.704Z,7.4
2022-10-19T12:03:51.716Z,7.6
2022-10-19T12:06:51.749Z,7.5
2022-10-19T12:09:51.722Z,7.4
2022-10-19T12:12:51.732Z,7.5
2022-10-19T12:15:51.726Z,7.6
2022-10-19T12:18:51.734Z,7.4
2022-10-19T12:21:51.728Z,7.4
2022-10-19T12:24:51.769Z,7.2
2022-10-19T12:27:51.945Z,7.2
2022-10-19T12:30:51.745Z,7.3
2022-10-19T12:33:51.747Z,7.5
2022-10-19T12:36:51.756Z,7.3
2022-10-19T12:39:51.756Z,7.1
2022-10-19T12:42:51.801Z,7.1
2022-10-19T12:45:51.763Z,7.3
2022-10-19T12:48:51.772Z,7.3
2022-10-19T12:51:51.773Z,7.3
2022-10-19T12:54:51.780Z,7.3
2022-10-19T12:57:51.800Z,7.2
2022-10-19T13:00:51.884Z,7
2022-10-19T13:03:51.797Z,7.2
2022-10-19T13:06:51.801Z,7.3
2022-10-19T13:09:51.799Z,7.3
2022-10-19T13:12:51.816Z,7.1
2022-10-19T13:15:51.801Z,7
2022-10-19T13:18:51.837Z,6.9
2022-10-19T13:21:51.823Z,6.8
2022-10-19T13:24:51.844Z,6.9
2022-10-19T13:27:51.850Z,6.9
2022-10-19T13:30:51.835Z,7.1
2022-10-19T13:33:51.839Z,7.2
2022-10-19T13:36:51.874Z,7.3
2022-10-19T13:39:51.852Z,7.2
2022-10-19T13:42:51.883Z,7
2022-10-19T13:45:51.871Z,7.1
2022-10-19T13:48:51.882Z,7.2
2022-10-19T13:51:51.884Z,7.2
2022-10-19T13:54:51.917Z,7.3
2022-10-19T13:57:53.198Z,7.3
2022-10-19T14:00:51.902Z,7.3
2022-10-19T14:03:51.911Z,7.3
2022-10-19T14:06:51.909Z,7.3
2022-10-19T14:09:51.926Z,7.3
2022-10-19T14:12:51.960Z,7.5
2022-10-19T14:15:51.932Z,7.6
2022-10-19T14:18:51.936Z,7.6
2022-10-19T14:21:51.950Z,7.5
2022-10-19T14:24:51.952Z,7.6
2022-10-19T14:27:51.970Z,7.6
2022-10-19T14:30:51.990Z,7.5
2022-10-19T14:33:51.980Z,7.4
2022-10-19T14:36:51.987Z,7.4
2022-10-19T14:39:51.991Z,7.4
2022-10-19T14:42:52.007Z,7.4
2022-10-19T14:45:52.003Z,7.4
2022-10-19T14:48:52.041Z,7.5
2022-10-19T14:51:52.019Z,7.4
2022-10-19T14:54:52.027Z,7.3
2022-10-19T14:57:52.043Z,7.2
2022-10-19T15:00:52.043Z,7.2
2022-10-19T15:03:52.048Z,7.1
2022-10-19T15:06:52.078Z,7.1
2022-10-19T15:09:52.061Z,7
2022-10-19T15:12:52.085Z,7
2022-10-19T15:15:52.084Z,7
2022-10-19T15:18:52.188Z,7.1
2022-10-19T15:21:52.108Z,7
2022-10-19T15:24:52.132Z,7
2022-10-19T15:27:52.121Z,7.1
2022-10-19T15:30:52.122Z,7.1
2022-10-19T15:33:52.125Z,7
2022-10-19T15:36:52.152Z,7.1
2022-10-19T15:39:52.144Z,7
2022-10-19T15:42:52.190Z,6.9
2022-10-19T15:45:52.152Z,6.9
2022-10-19T15:48:52.545Z,6.9
2022-10-19T15:51:52.176Z,6.9
2022-10-19T15:54:52.182Z,6.9
2022-10-19T15:57:52.200Z,6.8
2022-10-19T16:00:52.225Z,6.7
2022-10-19T16:03:52.209Z,6.8
2022-10-19T16:06:52.341Z,6.8
2022-10-19T16:09:52.221Z,6.7
2022-10-19T16:12:52.239Z,6.7
2022-10-19T16:15:56.699Z,6.7
2022-10-19T16:18:52.269Z,6.7
2022-10-19T16:21:52.249Z,6.7
2022-10-19T16:24:52.256Z,6.6
2022-10-19T16:27:52.272Z,6.6
2022-10-19T16:30:52.273Z,6.6
2022-10-19T16:33:52.275Z,6.6
2022-10-19T16:36:52.306Z,6.7
2022-10-19T16:39:52.286Z,6.7
2022-10-19T16:42:52.305Z,6.7
2022-10-19T16:45:52.295Z,6.7
2022-10-19T16:48:52.299Z,6.6
2022-10-19T16:51:53.377Z,6.6
2022-10-19T16:54:52.335Z,6.5
2022-10-19T16:57:52.323Z,6.5
2022-10-19T17:00:52.313Z,6.4
2022-10-19T17:03:52.325Z,6.4
2022-10-19T17:06:52.323Z,6.3
2022-10-19T17:09:54.797Z,6.3
2022-10-19T17:12:52.364Z,6.3
2022-10-19T17:15:52.335Z,6.3
2022-10-19T17:18:52.334Z,6.3
2022-10-19T17:21:52.339Z,6.3
2022-10-19T17:24:52.339Z,6.2
2022-10-19T17:27:52.355Z,6.2
2022-10-19T17:30:52.373Z,6.1
2022-10-19T17:33:52.376Z,6
2022-10-19T17:36:52.357Z,6
2022-10-19T17:39:52.364Z,6.2
2022-10-19T17:42:52.377Z,6.2
2022-10-19T17:45:52.379Z,6
2022-10-19T17:48:52.402Z,5.8
2022-10-19T17:51:52.374Z,5.6
2022-10-19T17:55:10.986Z,5.7
2022-10-19T17:57:52.379Z,5.8
2022-10-19T18:00:52.376Z,5.6
2022-10-19T18:03:52.380Z,5.6
2022-10-19T18:06:52.401Z,5.5
2022-10-19T18:09:52.384Z,5.4
2022-10-19T18:12:52.410Z,5.4
2022-10-19T18:15:52.416Z,5.5
2022-10-19T18:18:52.413Z,5.6
2022-10-19T18:21:52.425Z,5.5
2022-10-19T18:24:52.452Z,5.4
2022-10-19T18:27:52.438Z,5.4
2022-10-19T18:30:52.455Z,5.4
2022-10-19T18:33:52.459Z,5.4
2022-10-19T18:36:52.471Z,5.4
2022-10-19T18:39:52.482Z,5.4
2022-10-19T18:42:52.518Z,5.3
2022-10-19T18:45:52.506Z,5.1
2022-10-19T18:48:52.517Z,5.1
2022-10-19T18:51:54.977Z,5.1
2022-10-19T18:54:52.534Z,5.1
2022-10-19T18:57:52.540Z,5
2022-10-19T19:00:52.572Z,5
2022-10-19T19:03:52.560Z,5.1
2022-10-19T19:06:52.573Z,5.1
2022-10-19T19:09:52.584Z,5.1
2022-10-19T19:12:52.584Z,5.1
2022-10-19T19:15:52.597Z,5
2022-10-19T19:18:52.642Z,4.9
2022-10-19T19:21:52.623Z,4.8
2022-10-19T19:24:52.633Z,4.9
2022-10-19T19:27:52.648Z,4.8
2022-10-19T19:30:52.658Z,4.8
2022-10-19T19:33:52.674Z,4.8
2022-10-19T19:36:52.707Z,4.9
2022-10-19T19:39:52.693Z,4.9
2022-10-19T19:42:52.700Z,4.7
2022-10-19T19:45:52.726Z,4.7
2022-10-19T19:48:52.719Z,4.8
2022-10-19T19:51:52.722Z,4.8
2022-10-19T19:54:52.837Z,4.6
2022-10-19T19:57:52.731Z,4.4
2022-10-19T20:00:52.744Z,4.3
2022-10-19T20:03:52.814Z,4.3
2022-10-19T20:06:52.751Z,4.4
2022-10-19T20:09:52.754Z,4.4
2022-10-19T20:12:52.836Z,4.3
2022-10-19T20:15:52.773Z,4.4
2022-10-19T20:18:52.777Z,4.5
2022-10-19T20:21:52.782Z,4.5
2022-10-19T20:24:52.793Z,4.4
2022-10-19T20:27:52.792Z,4.5
2022-10-19T20:30:52.825Z,4.5
2022-10-19T20:33:52.809Z,4.6
2022-10-19T20:36:52.806Z,4.6
2022-10-19T20:39:52.812Z,4.6
2022-10-19T20:42:52.817Z,4.5
2022-10-19T20:45:52.828Z,4.5
2022-10-19T20:48:52.878Z,4.4
2022-10-19T20:51:52.864Z,4.5
2022-10-19T20:54:52.874Z,4.5
2022-10-19T20:57:52.887Z,4.4
2022-10-19T21:00:52.895Z,4.3
2022-10-19T21:03:52.910Z,4.2
2022-10-19T21:06:52.937Z,4.2
2022-10-19T21:09:52.923Z,4.1
2022-10-19T21:12:52.935Z,4
2022-10-19T21:15:52.941Z,3.9
2022-10-19T21:18:52.959Z,3.9
2022-10-19T21:21:52.968Z,3.9
2022-10-19T21:24:53.000Z,3.9
2022-10-19T21:27:52.991Z,4
2022-10-19T21:30:53.000Z,4
2022-10-19T21:33:53.016Z,4
2022-10-19T21:36:53.037Z,3.8
2022-10-19T21:39:53.041Z,3.8
2022-10-19T21:42:53.077Z,3.8
2022-10-19T21:45:53.083Z,3.9
2022-10-19T21:48:53.094Z,3.9
2022-10-19T21:51:53.101Z,3.9
2022-10-19T21:54:53.109Z,3.9
2022-10-19T21:57:53.122Z,3.9
2022-10-19T22:00:53.159Z,3.8
2022-10-19T22:03:53.139Z,3.8
2022-10-19T22:06:53.155Z,3.8
2022-10-19T22:09:53.175Z,3.8
2022-10-19T22:12:53.186Z,3.7
2022-10-19T22:15:53.194Z,3.6
2022-10-19T22:18:53.232Z,3.5
2022-10-19T22:21:53.229Z,3.5
2022-10-19T22:24:53.234Z,3.5
2022-10-19T22:27:53.244Z,3.5
2022-10-19T22:30:53.267Z,3.5
2022-10-19T22:33:53.273Z,3.5
2022-10-19T22:36:53.312Z,3.5
2022-10-19T22:39:53.317Z,3.6
2022-10-19T22:42:53.320Z,3.7
2022-10-19T22:45:53.340Z,3.8
2022-10-19T22:48:53.357Z,3.8
2022-10-19T22:51:53.363Z,3.7
2022-10-19T22:54:53.398Z,3.6
2022-10-19T22:57:53.392Z,3.6
2022-10-19T23:00:53.413Z,3.5
2022-10-19T23:03:53.426Z,3.6
2022-10-19T23:06:53.446Z,3.6
2022-10-19T23:09:53.460Z,3.6
2022-10-19T23:12:53.491Z,3.7
2022-10-19T23:15:53.481Z,3.7
2022-10-19T23:18:53.500Z,3.8
2022-10-19T23:21:53.530Z,3.8
2022-10-19T23:24:53.540Z,3.8
2022-10-19T23:27:53.559Z,3.8
2022-10-19T23:30:53.619Z,3.7
2022-10-19T23:33:53.598Z,3.7
2022-10-19T23:36:53.613Z,3.6
2022-10-19T23:39:53.626Z,3.6
2022-10-19T23:42:53.642Z,3.5
2022-10-19T23:45:53.653Z,3.5
2022-10-19T23:48:53.696Z,3.4
2022-10-19T23:51:53.684Z,3.4
2022-10-19T23:54:53.711Z,3.3
2022-10-19T23:57:53.735Z,3.3
